ADDS METAR Data INFO
IDs: Format: Raw Decoded Include TAF

Data at: 0315 UTC 16 Dec 2017

PAHN 160254Z AUTO 07010G15KT 10SM OVC012 04/02 A2994 RMK AO2 SLP140 T00390017 56016 TSNO
PAHN 160243Z AUTO 10006KT 10SM OVC013 04/02 A2995 RMK AO2 T00390017 TSNO
PAHN 160234Z AUTO 13008G17KT 10SM OVC015 03/02 A2995 RMK AO2 T00330017 TSNO
PAHN 160154Z AUTO 07008G15KT 10SM OVC012 04/02 A2995 RMK AO2 SLP145 T00390017 TSNO
PAHN 160142Z AUTO 09006KT 10SM OVC014 04/02 A2997 RMK AO2 T00390017 TSNO
PAHN 160054Z AUTO VRB04KT 10SM OVC020 04/01 A2996 RMK AO2 SLP149 T00390011 TSNO
PAHN 160015Z AUTO 30005KT 10SM SCT013 BKN025 02/01 A2998 RMK AO2 T00170006 TSNO
PAHN 152354Z AUTO 29007KT 10SM OVC013 02/01 A2998 RMK AO2 SLP155 T00220011 10044 20022 53007 TSNO
PAHN 152322Z AUTO VRB05KT 10SM OVC013 03/02 A2996 RMK AO2 T00330017 TSNO
PAHN 152254Z AUTO VRB04KT 10SM OVC015 03/02 A2995 RMK AO2 SLP146 T00330017 TSNO
PAHN 152244Z AUTO 00000KT 10SM OVC015 03/02 A2996 RMK AO2 T00280017 TSNO
PAHN 152154Z AUTO 27006KT 10SM OVC013 03/02 A2995 RMK AO2 SLP146 T00280017 TSNO
PAHN 152054Z AUTO VRB05KT 10SM OVC012 04/02 A2996 RMK AO2 SLP149 T00440022 53016 TSNO
PAHN 151954Z AUTO 07007KT 030V100 10SM OVC011 04/02 A2995 RMK AO2 SLP143 T00390022 TSNO
PAHN 151854Z AUTO 08006KT 10SM OVC010 04/02 A2993 RMK AO2 SLP137 T00390022 TSNO
PAHN 151754Z AUTO 11005KT 10SM OVC010 04/02 A2992 RMK AO2 SLP133 T00390022 10039 20033 53015 TSNO
PAHN 151654Z AUTO 08009KT 060V120 10SM OVC013 04/02 A2990 RMK AO2 SLP126 T00390022 TSNO
PAHN 151554Z AUTO 08008KT 10SM OVC013 04/02 A2989 RMK AO2 SLP123 T00390022 TSNO
PAHN 151510Z AUTO 08007KT 050V130 10SM BKN014 OVC041 04/03 A2987 RMK AO2 T00390028 TSNO
PAHN 151454Z AUTO 11008G15KT 070V150 10SM BKN015 OVC065 04/02 A2987 RMK AO2 SLP118 T00390022 53010 TSNO
PAHN 151431Z AUTO 08010G17KT 060V120 10SM BKN014 BKN070 03/02 A2987 RMK AO2 T00330022 TSNO
PAHN 151408Z AUTO 09009G15KT 10SM SCT013 SCT070 03/02 A2987 RMK AO2 T00330022 TSNO
PAHN 151354Z AUTO 09008KT 10SM BKN013 BKN070 03/02 A2986 RMK AO2 SLP114 T00330022 TSNO
PAHN 151254Z AUTO 09006KT 10SM OVC013 04/03 A2985 RMK AO2 SLP109 T00390028 TSNO
PAHN 151154Z AUTO 11010G21KT 10SM OVC013 04/03 A2984 RMK AO2 SLP108 60000 70047 T00390028 10044 20039 53002 TSNO
PAHN 151054Z AUTO 10010G19KT 070V140 10SM BKN014 BKN019 OVC029 04/03 A2984 RMK AO2 RAE04 SLP106 P0000 T00390028 TSNO
PAHN 150954Z AUTO 10008G17KT 10SM -RA FEW010 BKN014 OVC024 04/03 A2983 RMK AO2 RAE39B46 SLP104 P0000 T00440028 TSNO
PAHN 150940Z AUTO 09010G22KT 070V130 10SM BKN014 OVC025 04/03 A2983 RMK AO2 RAE39 P0000 T00390028 TSNO
PAHN 150931Z AUTO 09009G21KT 050V130 9SM -RA SCT014 BKN025 OVC032 04/03 A2983 RMK AO2 P0000 T00390028 TSNO
PAHN 150854Z AUTO 10010G18KT 10SM -RA BKN013 BKN024 OVC035 04/03 A2984 RMK AO2 RAE0757B17E23B53 SLP106 P0000 60000 T00440033 400830039 53007 TSNO
PAHN 150817Z AUTO 11011G22KT 10SM -RA SCT011 BKN016 OVC033 04/03 A2983 RMK AO2 RAE0757B17 P0000 T00440028 TSNO
PAHN 150803Z AUTO 09009G22KT 050V120 10SM BKN011 BKN027 OVC036 04/03 A2981 RMK AO2 RAE0757 P0000 T00440033 TSNO
PAHN 150754Z AUTO 09014G21KT 10SM -RA FEW014 SCT026 OVC036 04/03 A2982 RMK AO2 PK WND 13027/0719 SLP099 P0000 T00390033 TSNO
PAHN 150747Z AUTO 10012G22KT 9SM -RA FEW014 OVC036 04/03 A2982 RMK AO2 PK WND 13027/0719 P0000 T00390028 TSNO
PAHN 150726Z AUTO 12015G27KT 10SM -RA SCT015 BKN020 OVC035 04/03 A2982 RMK AO2 PK WND 13027/0719 P0000 T00440028 TSNO
PAHN 150654Z AUTO 12013G22KT 10SM -RA FEW010 BKN013 OVC035 04/03 A2983 RMK AO2 PK WND 12030/0624 RAB35 SLP103 P0000 T00440033 TSNO
PAHN 150638Z AUTO 12014G21KT 10SM -RA SCT012 BKN034 OVC044 04/03 A2983 RMK AO2 PK WND 12030/0624 RAB35 P0000 T00440028 TSNO
PAHN 150613Z AUTO 08014G21KT 10SM BKN014 OVC050 04/03 A2981 RMK AO2 T00440028 TSNO
PAHN 150554Z AUTO 11016G23KT 10SM FEW013 BKN018 OVC060 04/03 A2982 RMK AO2 PK WND 10026/0455 SLP099 60004 T00440028 10067 20044 53012 TSNO
PAHN 150547Z AUTO 11012G22KT 070V140 10SM BKN016 OVC060 04/03 A2982 RMK AO2 PK WND 10026/0455 T00440028 TSNO
PAHN 150539Z AUTO 11014G21KT 080V140 10SM OVC014 05/03 A2981 RMK AO2 PK WND 10026/0455 T00500028 TSNO
PAHN 150454Z AUTO 09015G23KT 10SM BKN018 OVC024 05/03 A2980 RMK AO2 PK WND 06028/0424 RAE11 SLP094 P0001 T00500028 TSNO
PAHN 150426Z AUTO 09010G28KT 10SM BKN016 BKN021 OVC050 05/03 A2979 RMK AO2 PK WND 06028/0424 RAE11 P0001 T00500028 TSNO
PAHN 150411Z AUTO 08015G23KT 10SM BKN014 BKN026 OVC065 05/03 A2978 RMK AO2 PK WND 08026/0358 RAE11 P0000 T00500033 TSNO
PAHN 150401Z AUTO 09016G26KT 8SM -RA SCT011 BKN043 OVC070 05/03 A2978 RMK AO2 PK WND 08026/0358 P0000 T00500033 TSNO
PAHN 150354Z AUTO 10015G25KT 7SM -RA BKN011 BKN022 OVC075 05/03 A2978 RMK AO2 PK WND 08031/0333 SLP086 P0000 T00500033 TSNO
PAHN 150314Z AUTO 07016G23KT 10SM -RA BKN011 OVC021 05/03 A2976 RMK AO2 P0000 T00500033 TSNO
PAHN 150254Z AUTO 11010G23KT 070V140 10SM -RA FEW014 BKN023 OVC037 05/03 A2978 RMK AO2 SLP087 P0001 60003 T00500033 51018 TSNO
PAHN 150234Z AUTO 09011G23KT 050V130 10SM -RA BKN027 OVC035 05/03 A2978 RMK AO2 P0001 T00500033 TSNO
PAHN 150154Z AUTO 11018G27KT 7SM -RA FEW016 SCT026 OVC035 05/04 A2977 RMK AO2 PK WND 11031/0055 SLP085 P0002 T00500039 TSNO
PAHN 150054Z AUTO 11016G26KT 070V130 9SM -RA FEW016 BKN049 OVC070 06/04 A2975 RMK AO2 PK WND 12029/0012 SLP078 P0000 T00610044 TSNO
PAHN 142354Z AUTO 11013G28KT 10SM -RA FEW016 OVC048 07/05 A2973 RMK AO2 PK WND 14036/2340 SLP069 P0001 60012 T00670050 10083 20067 53020 TSNO
PAHN 142254Z AUTO 10018G28KT 3SM -RA BR FEW014 BKN032 OVC049 07/06 A2969 RMK AO2 PK WND 11029/2233 SLP056 P0004 T00720056 TSNO
PAHN 142225Z AUTO 12014G24KT 8SM -RA BKN015 OVC034 07/06 A2969 RMK AO2 PK WND 10027/2155 P0000 T00720061 TSNO
PAHN 142211Z AUTO 10016G25KT 7SM -RA BKN013 OVC026 07/06 A2968 RMK AO2 PK WND 10027/2155 P0000 T00720061 TSNO
PAHN 142202Z AUTO 11016G27KT 7SM -RA OVC015 07/06 A2969 RMK AO2 PK WND 10027/2155 P0000 T00720061 TSNO
PAHN 142154Z AUTO 11017G27KT 8SM -RA FEW010 OVC013 07/06 A2969 RMK AO2 PK WND 12031/2058 SLP056 P0001 T00720061 TSNO
PAHN 142129Z AUTO 09013G29KT 060V130 7SM -RA BKN013 OVC022 07/06 A2968 RMK AO2 PK WND 12031/2058 P0001 T00720061 TSNO
PAHN 142118Z AUTO 10014G28KT 6SM -RA BR FEW010 BKN016 OVC024 07/06 A2968 RMK AO2 PK WND 12031/2058 P0000 T00720061 TSNO
PAHN 142054Z AUTO 10017G30KT 4SM -RA BR BKN013 OVC020 07/06 A2967 RMK AO2 PK WND 10034/2002 SLP049 P0003 60006 T00720061 53004 TSNO
PAHN 142045Z AUTO 10016G30KT 6SM -RA BR BKN013 OVC018 07/06 A2967 RMK AO2 PK WND 10034/2002 P0002 T00720061 TSNO
PAHN 142018Z AUTO 09016G28KT 4SM -RA BR FEW011 BKN015 OVC034 08/06 A2966 RMK AO2 PK WND 10034/2002 P0001 T00780061 TSNO
PAHN 141954Z AUTO 09015G31KT 8SM -RA FEW017 BKN050 OVC065 08/06 A2965 RMK AO2 PK WND 12036/1935 SLP042 P0001 T00780061 TSNO
PAHN 141854Z AUTO 07017G31KT 5SM -RA BR BKN047 OVC055 08/06 A2964 RMK AO2 PK WND 05034/1842 SLP039 P0002 T00830061 TSNO
PAHN 141754Z AUTO 06012G31KT 020V090 10SM -RA OVC049 08/06 A2966 RMK AO2 PK WND 06031/1750 SLP045 P0002 60031 T00830061 10083 20067 58022 TSNO
PAHN 141654Z AUTO 06014G28KT 020V120 7SM -RA FEW018 OVC039 08/06 A2969 RMK AO2 PK WND 06030/1611 SLP055 P0004 T00780056 TSNO
PAHN 141623Z AUTO 09014G25KT 060V120 8SM -RA SCT017 SCT029 OVC033 07/06 A2969 RMK AO2 PK WND 06030/1611 P0003 T00720056 TSNO
PAHN 141554Z AUTO 07014G27KT 8SM -RA BKN018 OVC026 07/06 A2970 RMK AO2 PK WND 05031/1542 SLP059 P0003 T00720056 TSNO
PAHN 141536Z AUTO 06013G26KT 6SM -RA BR SCT018 OVC028 07/06 A2970 RMK AO2 PK WND 06029/1526 P0003 T00720056 TSNO